Time;durP1;ratioP1;P1;durP2;ratioP2;P2;SDS_P1;SDS_P2;PMS_P1;PMS_P2;Temp;Humidity;BMP_temperature;BMP_pressure;BME280_temperature;BME280_humidity;BME280_pressure;Samples;Min_cycle;Max_cycle;Signal;HPM_P1;HPM_P2
2022/12/24 00:01:21;;;;;;;2.37;2.00;;;12.10;99.90;;;;;;5007757;28;20215;-78
2022/12/24 00:03:47;;;;;;;3.17;2.23;;;11.20;99.90;;;;;;5007602;28;20627;-78
2022/12/24 00:06:19;;;;;;;2.60;2.00;;;12.10;99.90;;;;;;5012037;28;20253;-78
2022/12/24 00:08:44;;;;;;;6.20;3.10;;;11.80;99.90;;;;;;5008730;28;20183;-79
2022/12/24 00:11:10;;;;;;;5.97;2.70;;;11.50;99.90;;;;;;5012178;28;20202;-78
2022/12/24 00:13:35;;;;;;;3.17;2.67;;;11.40;99.90;;;;;;5011412;28;20178;-78
2022/12/24 00:16:01;;;;;;;4.67;2.50;;;11.70;99.90;;;;;;5011722;28;20192;-78
2022/12/24 00:18:27;;;;;;;3.30;2.37;;;11.30;99.90;;;;;;5007018;28;20186;-78
2022/12/24 00:20:53;;;;;;;3.10;2.40;;;11.30;99.90;;;;;;5012355;28;20222;-78
2022/12/24 00:23:19;;;;;;;5.93;2.50;;;11.20;99.90;;;;;;5009715;28;20190;-78
2022/12/24 00:25:45;;;;;;;6.75;2.05;;;11.80;99.90;;;;;;5017147;28;20178;-78
2022/12/24 00:28:11;;;;;;;3.87;2.03;;;11.30;99.90;;;;;;5010305;28;20191;-78
2022/12/24 00:30:38;;;;;;;5.65;1.80;;;11.60;99.90;;;;;;5011475;28;20249;-78
2022/12/24 00:33:04;;;;;;;1.60;1.50;;;11.00;99.90;;;;;;5000609;28;20334;-77
2022/12/24 00:35:32;;;;;;;3.95;1.83;;;11.20;99.90;;;;;;5011812;28;20273;-78
2022/12/24 00:37:57;;;;;;;3.35;1.70;;;11.60;99.90;;;;;;5010280;28;20200;-79
2022/12/24 00:40:22;;;;;;;3.63;1.87;;;11.20;99.90;;;;;;5003098;28;20296;-77
2022/12/24 00:42:48;;;;;;;3.10;1.47;;;11.40;99.90;;;;;;5016525;28;20836;-78
2022/12/24 00:45:13;;;;;;;4.40;1.80;;;11.90;99.90;;;;;;5011157;28;20177;-78
2022/12/24 00:47:39;;;;;;;5.70;2.70;;;11.60;99.90;;;;;;5005088;28;20186;-78
2022/12/24 00:50:05;;;;;;;2.73;1.83;;;11.50;99.90;;;;;;5011445;28;20221;-78
2022/12/24 00:52:31;;;;;;;3.20;1.70;;;11.60;99.90;;;;;;5011175;28;20600;-77
2022/12/24 00:54:56;;;;;;;6.47;2.10;;;11.90;99.90;;;;;;5006111;28;20296;-78
2022/12/24 00:57:22;;;;;;;5.37;2.40;;;12.00;99.90;;;;;;5010748;28;20194;-78
2022/12/24 00:59:47;;;;;;;2.70;2.00;;;11.50;99.90;;;;;;5010711;28;20209;-78
2022/12/24 01:02:13;;;;;;;7.93;2.40;;;11.40;99.90;;;;;;5010888;28;20250;-78
2022/12/24 01:07:23;;;;;;;4.63;2.30;;;11.70;99.90;;;;;;5011072;28;20629;-78
2022/12/24 01:09:48;;;;;;;3.93;1.77;;;11.50;99.90;;;;;;5007920;28;20216;-78
2022/12/24 01:12:14;;;;;;;4.17;1.90;;;11.70;99.90;;;;;;5012406;28;20212;-78
2022/12/24 01:14:39;;;;;;;3.50;1.67;;;11.40;99.90;;;;;;5010802;28;20195;-79
2022/12/24 01:17:05;;;;;;;2.60;1.67;;;11.80;99.90;;;;;;4999875;28;20280;-78
2022/12/24 01:19:30;;;;;;;2.57;2.37;;;11.70;99.90;;;;;;5011126;28;20270;-79
2022/12/24 01:21:57;;;;;;;3.03;1.53;;;11.30;99.90;;;;;;5008000;28;20214;-79
2022/12/24 01:24:22;;;;;;;3.13;1.80;;;11.80;99.90;;;;;;5008014;28;20264;-78
2022/12/24 01:26:48;;;;;;;4.40;2.00;;;11.80;99.90;;;;;;5009789;28;20658;-77
2022/12/24 01:29:14;;;;;;;3.63;1.70;;;11.50;99.90;;;;;;5011417;28;20543;-79
2022/12/24 01:31:40;;;;;;;3.25;1.67;;;11.50;99.90;;;;;;5009406;28;20238;-78
2022/12/24 01:34:06;;;;;;;5.10;2.47;;;11.60;99.90;;;;;;5010971;28;20229;-78
2022/12/24 01:36:31;;;;;;;3.20;1.80;;;11.70;99.90;;;;;;5010324;28;20181;-79
2022/12/24 01:38:57;;;;;;;5.37;1.90;;;12.10;99.90;;;;;;5003473;28;20558;-79
2022/12/24 01:44:25;;;;;;;4.00;1.52;;;11.80;99.90;;;;;;5010777;28;20239;-77
2022/12/24 01:46:55;;;;;;;3.35;2.13;;;11.60;99.90;;;;;;5010522;28;20184;-78
2022/12/24 01:49:21;;;;;;;4.75;2.13;;;12.00;99.90;;;;;;5005497;28;20178;-78
2022/12/24 01:51:54;;;;;;;4.20;2.27;;;11.60;99.90;;;;;;5010568;28;20203;-78
2022/12/24 01:54:39;;;;;;;4.05;1.80;;;11.90;99.90;;;;;;5002931;28;20447;-78
2022/12/24 01:57:14;;;;;;;3.45;1.98;;;11.50;99.90;;;;;;5010135;28;20187;-77
2022/12/24 01:59:43;;;;;;;4.43;1.60;;;11.40;99.90;;;;;;4999069;28;20335;-77
2022/12/24 02:02:09;;;;;;;5.15;1.70;;;11.30;99.90;;;;;;5010739;28;20745;-77
2022/12/24 02:04:55;;;;;;;4.20;2.00;;;11.70;99.90;;;;;;5001412;28;20719;-78
2022/12/24 02:07:21;;;;;;;4.40;2.00;;;11.60;99.90;;;;;;5011007;28;20181;-78
2022/12/24 02:09:50;;;;;;;3.70;1.70;;;11.80;99.90;;;;;;5006851;28;20201;-78
2022/12/24 02:12:15;;;;;;;5.95;1.80;;;11.90;99.90;;;;;;5010353;28;20251;-78
2022/12/24 02:14:41;;;;;;;5.67;2.53;;;12.00;99.90;;;;;;5010540;28;20646;-78
2022/12/24 02:17:36;;;;;;;3.20;2.10;;;12.10;99.90;;;;;;5012138;28;20190;-79
2022/12/24 02:20:29;;;;;;;3.33;1.83;;;11.60;99.90;;;;;;5010638;28;20217;-78
2022/12/24 02:23:29;;;;;;;3.83;1.42;;;11.40;99.90;;;;;;5009686;28;20227;-78
2022/12/24 02:25:54;;;;;;;5.47;2.60;;;11.50;99.90;;;;;;4999728;28;20196;-78
2022/12/24 02:28:38;;;;;;;6.00;2.07;;;11.20;99.90;;;;;;5004692;28;20187;-79
2022/12/24 02:31:51;;;;;;;5.80;2.35;;;11.40;99.90;;;;;;5002342;28;20263;-79
2022/12/24 02:34:44;;;;;;;3.55;1.75;;;11.20;99.90;;;;;;4988544;28;20352;-78
2022/12/24 02:37:17;;;;;;;4.95;1.35;;;11.40;99.90;;;;;;5010782;28;20224;-78
2022/12/24 02:39:48;;;;;;;5.78;2.35;;;11.40;99.90;;;;;;5002750;28;20768;-78
2022/12/24 02:42:22;;;;;;;4.43;2.05;;;11.30;99.90;;;;;;5021986;28;20201;-78
2022/12/24 02:44:57;;;;;;;5.80;1.77;;;11.20;99.90;;;;;;5010412;28;20554;-79
2022/12/24 02:47:26;;;;;;;7.78;2.65;;;11.40;99.90;;;;;;5013693;28;20184;-79
2022/12/24 02:49:52;;;;;;;4.85;1.70;;;10.90;99.90;;;;;;5003466;28;20199;-79
2022/12/24 02:52:39;;;;;;;3.53;2.00;;;12.00;99.90;;;;;;5013358;28;20210;-79
2022/12/24 02:55:28;;;;;;;5.55;2.50;;;11.40;99.90;;;;;;5010667;28;20569;-79
2022/12/24 02:58:21;;;;;;;7.13;2.65;;;11.30;99.90;;;;;;5016263;28;20672;-78
2022/12/24 03:01:15;;;;;;;5.35;2.13;;;11.30;99.90;;;;;;5016581;28;20580;-78
2022/12/24 03:03:59;;;;;;;3.05;1.60;;;10.90;99.90;;;;;;5010035;28;20185;-79
2022/12/24 03:06:55;;;;;;;3.80;2.20;;;10.80;99.90;;;;;;5003122;28;20180;-79
2022/12/24 03:09:25;;;;;;;4.80;1.80;;;10.90;99.90;;;;;;5010048;28;20329;-79
2022/12/24 03:12:09;;;;;;;4.55;1.95;;;11.50;99.90;;;;;;5013672;28;20667;-79
2022/12/24 03:14:35;;;;;;;4.00;2.03;;;11.10;99.90;;;;;;5006307;28;20192;-78
2022/12/24 03:17:02;;;;;;;5.15;2.30;;;11.10;99.90;;;;;;5005490;28;20251;-78
2022/12/24 03:19:29;;;;;;;3.10;2.22;;;11.00;99.90;;;;;;5006109;28;20213;-78
2022/12/24 03:21:58;;;;;;;8.73;2.13;;;11.50;99.90;;;;;;5012968;28;20209;-78
2022/12/24 03:24:23;;;;;;;6.78;2.55;;;11.00;99.90;;;;;;5010456;28;20312;-79
2022/12/24 03:26:50;;;;;;;5.73;3.90;;;10.90;99.90;;;;;;5012779;28;20285;-78
2022/12/24 03:29:16;;;;;;;5.70;2.92;;;10.90;99.90;;;;;;5013538;28;20201;-78
2022/12/24 03:31:44;;;;;;;3.47;1.90;;;11.50;99.90;;;;;;5008863;28;20216;-78
2022/12/24 03:34:11;;;;;;;4.70;1.98;;;11.40;99.90;;;;;;5012876;28;21332;-78
2022/12/24 03:36:37;;;;;;;4.90;2.10;;;11.10;99.90;;;;;;5012460;28;20188;-79
2022/12/24 03:39:03;;;;;;;5.10;2.10;;;10.90;99.90;;;;;;5004991;28;20273;-78
2022/12/24 03:41:29;;;;;;;3.25;2.17;;;10.90;99.90;;;;;;5017377;28;20463;-78
2022/12/24 03:43:55;;;;;;;5.32;2.30;;;10.70;99.90;;;;;;5012776;28;20555;-78
2022/12/24 03:46:20;;;;;;;5.10;2.30;;;11.10;99.90;;;;;;5020474;28;20181;-78
2022/12/24 03:48:45;;;;;;;6.00;2.33;;;10.70;99.90;;;;;;5011870;28;20267;-78
2022/12/24 03:51:20;;;;;;;4.70;2.27;;;10.80;99.90;;;;;;5012544;28;20577;-78
2022/12/24 03:53:46;;;;;;;6.18;2.20;;;10.70;99.90;;;;;;5005746;28;20211;-78
2022/12/24 03:56:11;;;;;;;3.73;2.23;;;10.70;99.90;;;;;;5010182;28;20303;-78
2022/12/24 03:58:37;;;;;;;7.77;2.53;;;10.70;99.90;;;;;;5010735;28;20805;-78
2022/12/24 04:01:03;;;;;;;6.00;2.80;;;10.70;99.90;;;;;;5010044;28;20281;-78
2022/12/24 04:03:28;;;;;;;3.50;2.17;;;10.80;99.90;;;;;;5004915;28;20637;-78
2022/12/24 04:06:08;;;;;;;5.43;2.23;;;10.80;99.90;;;;;;5012179;28;20192;-78
2022/12/24 04:08:34;;;;;;;6.78;2.85;;;10.70;99.90;;;;;;5008170;28;20215;-78
2022/12/24 04:11:00;;;;;;;3.25;1.98;;;11.10;99.90;;;;;;5010619;28;20199;-77
2022/12/24 04:13:25;;;;;;;6.50;2.67;;;11.00;99.90;;;;;;5020874;28;20200;-78
2022/12/24 04:15:59;;;;;;;3.33;2.03;;;10.90;99.90;;;;;;5010314;28;20181;-78
2022/12/24 04:18:25;;;;;;;5.18;2.97;;;10.90;99.90;;;;;;5006834;28;20254;-77
2022/12/24 04:20:50;;;;;;;5.65;2.55;;;10.80;99.90;;;;;;5026891;28;20312;-79
2022/12/24 04:23:16;;;;;;;5.23;2.27;;;10.60;99.90;;;;;;5010417;28;20700;-78
2022/12/24 04:25:41;;;;;;;7.00;2.90;;;10.80;99.90;;;;;;5011734;28;20207;-78
2022/12/24 04:28:07;;;;;;;5.17;2.50;;;11.20;99.90;;;;;;5011653;28;20216;-78
2022/12/24 04:30:32;;;;;;;4.63;2.27;;;11.20;99.90;;;;;;5011656;28;20223;-78
2022/12/24 04:32:58;;;;;;;6.90;2.27;;;11.20;99.90;;;;;;5008020;28;20212;-78
2022/12/24 04:35:23;;;;;;;7.10;3.10;;;11.00;99.90;;;;;;5011800;28;20311;-77
2022/12/24 04:37:49;;;;;;;6.60;2.27;;;10.70;99.90;;;;;;5012050;28;20537;-78
2022/12/24 04:40:14;;;;;;;4.67;2.37;;;10.40;99.90;;;;;;5002228;28;20754;-77
2022/12/24 04:42:40;;;;;;;3.83;2.40;;;10.70;99.90;;;;;;5018650;28;20209;-78
2022/12/24 04:45:06;;;;;;;5.60;2.30;;;11.30;99.90;;;;;;5021534;28;20667;-78
2022/12/24 04:47:31;;;;;;;7.07;2.50;;;10.70;99.90;;;;;;5009182;28;20191;-78
2022/12/24 04:49:58;;;;;;;4.57;1.93;;;10.70;99.90;;;;;;5011591;28;20194;-78
2022/12/24 04:52:23;;;;;;;4.63;2.58;;;10.80;99.90;;;;;;5011063;28;20693;-78
2022/12/24 04:54:49;;;;;;;2.07;1.80;;;10.60;99.90;;;;;;5005493;28;20194;-78
2022/12/24 04:57:14;;;;;;;6.27;2.80;;;11.00;99.90;;;;;;5010844;28;20189;-77
2022/12/24 04:59:40;;;;;;;5.97;2.13;;;10.70;99.90;;;;;;5021305;28;20207;-78
2022/12/24 05:02:05;;;;;;;7.47;2.40;;;11.10;99.90;;;;;;4999360;28;20230;-78
2022/12/24 05:04:31;;;;;;;6.80;2.77;;;11.10;99.90;;;;;;5011260;28;20180;-78
2022/12/24 05:06:56;;;;;;;5.73;2.17;;;10.70;99.90;;;;;;5022142;28;20234;-78
2022/12/24 05:09:22;;;;;;;9.53;3.77;;;10.90;99.90;;;;;;5008600;28;20189;-78
2022/12/24 05:11:47;;;;;;;6.60;2.10;;;10.90;99.90;;;;;;5011520;28;20207;-78
2022/12/24 05:14:13;;;;;;;12.53;2.30;;;;;;;;;;5010566;28;20542;-78
2022/12/24 05:16:39;;;;;;;6.80;2.40;;;10.50;99.90;;;;;;5013124;28;20196;-78
2022/12/24 05:19:04;;;;;;;7.67;2.80;;;10.70;99.90;;;;;;5002000;28;20507;-78
2022/12/24 05:21:30;;;;;;;6.20;3.37;;;10.20;99.90;;;;;;5010470;28;20222;-78
2022/12/24 05:26:47;;;;;;;11.65;2.42;;;10.40;99.90;;;;;;5011683;28;20557;-78
2022/12/24 05:29:13;;;;;;;4.57;2.42;;;9.90;99.90;;;;;;5003929;28;20378;-78
2022/12/24 05:31:40;;;;;;;5.50;2.87;;;9.90;99.90;;;;;;5006807;28;20711;-78
2022/12/24 05:34:07;;;;;;;4.13;2.03;;;10.60;99.90;;;;;;5010577;28;20998;-77
2022/12/24 05:36:32;;;;;;;5.07;2.78;;;10.10;99.90;;;;;;5011926;28;20198;-78
2022/12/24 05:38:58;;;;;;;6.77;2.47;;;10.30;99.90;;;;;;5004324;28;20254;-78
2022/12/24 05:41:24;;;;;;;3.93;2.50;;;10.30;99.90;;;;;;5007732;28;20203;-78
2022/12/24 05:43:50;;;;;;;5.90;2.43;;;10.60;99.90;;;;;;5022486;28;20183;-78
2022/12/24 05:46:18;;;;;;;7.82;3.60;;;10.60;99.90;;;;;;5010352;28;20430;-79
2022/12/24 05:48:44;;;;;;;3.60;2.15;;;10.60;99.90;;;;;;5010142;28;20188;-78
2022/12/24 05:51:12;;;;;;;7.27;2.53;;;10.20;99.90;;;;;;5010406;28;20216;-78
2022/12/24 05:53:38;;;;;;;5.40;2.80;;;10.10;99.90;;;;;;5006867;28;20449;-78
2022/12/24 05:56:10;;;;;;;9.95;3.53;;;10.10;99.90;;;;;;5010210;28;20179;-78
2022/12/24 05:58:36;;;;;;;7.75;3.10;;;10.50;99.90;;;;;;5009267;28;20198;-78
2022/12/24 06:01:03;;;;;;;5.78;2.25;;;10.50;99.90;;;;;;5009242;28;20212;-78
2022/12/24 06:03:29;;;;;;;5.25;2.28;;;10.00;99.90;;;;;;5002598;28;20195;-78
2022/12/24 06:06:04;;;;;;;4.15;2.03;;;10.20;99.90;;;;;;5011710;28;20746;-78
2022/12/24 06:08:30;;;;;;;7.90;2.70;;;10.10;99.90;;;;;;5006631;28;20187;-78
2022/12/24 06:10:58;;;;;;;7.13;2.47;;;9.50;99.90;;;;;;5006571;28;20197;-78
2022/12/24 06:13:24;;;;;;;6.65;3.47;;;10.30;99.90;;;;;;5013446;28;20184;-78
2022/12/24 06:15:53;;;;;;;5.18;2.47;;;10.00;99.90;;;;;;5016729;28;20211;-78
2022/12/24 06:18:18;;;;;;;5.80;2.55;;;10.40;99.90;;;;;;5011137;28;20201;-79
2022/12/24 06:20:44;;;;;;;2.93;2.50;;;10.40;99.90;;;;;;5013598;28;20308;-77
2022/12/24 06:23:10;;;;;;;5.80;2.97;;;10.00;99.90;;;;;;5013655;28;20175;-79
2022/12/24 06:25:35;;;;;;;5.77;2.57;;;9.80;99.90;;;;;;5010893;28;20183;-78
2022/12/24 06:28:01;;;;;;;5.40;2.20;;;10.00;99.90;;;;;;5013907;28;20187;-80
2022/12/24 06:30:26;;;;;;;6.00;2.10;;;9.90;99.90;;;;;;5014127;28;20679;-80
2022/12/24 06:32:52;;;;;;;4.27;2.43;;;10.20;99.90;;;;;;5004214;28;20204;-79
2022/12/24 06:35:17;;;;;;;4.87;2.13;;;10.00;99.90;;;;;;5017991;28;20565;-78
2022/12/24 06:37:42;;;;;;;7.13;2.57;;;10.30;99.90;;;;;;5013284;28;20187;-79
2022/12/24 06:40:08;;;;;;;5.47;3.00;;;9.50;99.90;;;;;;5003994;28;20211;-78
2022/12/24 06:42:34;;;;;;;5.73;2.97;;;9.80;99.90;;;;;;5015953;28;20290;-77
2022/12/24 06:44:59;;;;;;;5.03;2.50;;;9.70;99.90;;;;;;5017318;28;20438;-77
2022/12/24 06:47:25;;;;;;;3.70;2.60;;;10.20;99.90;;;;;;5016370;28;20184;-79
2022/12/24 06:49:50;;;;;;;4.33;2.50;;;9.80;99.90;;;;;;5006391;28;20655;-77
2022/12/24 06:52:16;;;;;;;5.10;3.20;;;10.00;99.90;;;;;;5018106;28;20265;-78
2022/12/24 06:54:42;;;;;;;9.13;4.07;;;9.80;99.90;;;;;;5011109;28;20262;-78
2022/12/24 06:57:07;;;;;;;7.53;3.47;;;9.80;99.90;;;;;;5013371;28;20683;-78
2022/12/24 06:59:33;;;;;;;7.27;2.90;;;10.30;99.90;;;;;;5013335;28;20211;-79
2022/12/24 07:01:58;;;;;;;8.80;3.40;;;9.80;99.90;;;;;;5002503;28;20216;-78
2022/12/24 07:04:24;;;;;;;11.40;2.97;;;10.10;99.90;;;;;;5011542;28;20211;-78
2022/12/24 07:06:49;;;;;;;4.63;2.50;;;9.80;99.90;;;;;;5012831;28;20188;-79
2022/12/24 07:09:15;;;;;;;4.90;2.37;;;9.90;99.90;;;;;;5011132;28;20190;-78
2022/12/24 07:11:40;;;;;;;6.40;2.57;;;9.90;99.90;;;;;;5013651;28;20238;-78
2022/12/24 07:14:06;;;;;;;6.37;2.50;;;9.70;99.90;;;;;;5007171;28;20284;-78
2022/12/24 07:16:32;;;;;;;4.37;2.70;;;;;;;;;;5012779;28;20245;-78
2022/12/24 07:18:57;;;;;;;5.82;2.50;;;9.80;99.90;;;;;;5010029;28;20194;-78
2022/12/24 07:21:23;;;;;;;6.03;2.77;;;10.00;99.90;;;;;;5013087;28;20214;-79
2022/12/24 07:23:48;;;;;;;6.70;3.80;;;10.00;99.90;;;;;;5007948;28;20723;-78
2022/12/24 07:26:14;;;;;;;7.50;3.33;;;10.20;99.90;;;;;;5013320;28;20187;-79
2022/12/24 07:28:39;;;;;;;3.90;2.93;;;10.10;99.90;;;;;;5012593;28;20210;-78
2022/12/24 07:31:05;;;;;;;6.60;3.17;;;9.80;99.90;;;;;;5012342;28;20203;-78
2022/12/24 07:33:30;;;;;;;8.53;3.77;;;10.00;99.90;;;;;;5010649;28;20711;-78
2022/12/24 07:35:58;;;;;;;6.33;2.70;;;9.90;99.90;;;;;;5012492;28;20191;-78
2022/12/24 07:38:23;;;;;;;5.28;3.00;;;9.60;99.90;;;;;;5009895;28;20188;-78
2022/12/24 07:40:49;;;;;;;5.93;2.77;;;;;;;;;;5004495;28;20224;-78
2022/12/24 07:43:15;;;;;;;8.13;2.70;;;9.60;99.90;;;;;;5013046;28;20190;-79
2022/12/24 07:45:40;;;;;;;5.87;2.80;;;9.70;99.90;;;;;;5012043;28;20953;-78
2022/12/24 07:48:06;;;;;;;6.70;2.77;;;9.90;99.90;;;;;;5009724;28;20325;-80
2022/12/24 07:50:31;;;;;;;6.40;3.10;;;9.80;99.90;;;;;;5012481;28;20245;-78
2022/12/24 07:52:57;;;;;;;6.70;3.33;;;9.80;99.90;;;;;;5011951;28;20586;-78
2022/12/24 07:55:22;;;;;;;5.03;2.97;;;9.90;99.90;;;;;;5006098;28;20203;-78
2022/12/24 07:57:48;;;;;;;6.47;3.00;;;9.80;99.90;;;;;;5012197;28;20198;-79
2022/12/24 08:00:13;;;;;;;6.53;3.20;;;9.80;99.90;;;;;;5012796;28;20217;-78
2022/12/24 08:02:39;;;;;;;7.20;2.80;;;9.70;99.90;;;;;;5006076;28;20219;-79
2022/12/24 08:05:05;;;;;;;6.60;3.03;;;9.90;99.90;;;;;;5012063;28;20437;-79
2022/12/24 08:07:31;;;;;;;6.45;3.05;;;10.10;99.90;;;;;;5011117;28;20191;-78
2022/12/24 08:09:56;;;;;;;6.00;4.30;;;10.40;99.90;;;;;;5008816;28;20241;-78
2022/12/24 08:12:23;;;;;;;5.57;3.37;;;9.70;99.90;;;;;;5013355;28;20563;-78
2022/12/24 08:14:48;;;;;;;6.10;3.28;;;9.90;99.90;;;;;;5011742;28;20179;-78
2022/12/24 08:17:14;;;;;;;7.80;5.10;;;10.30;99.90;;;;;;5009485;28;20713;-79
2022/12/24 08:19:39;;;;;;;9.20;3.20;;;9.90;99.90;;;;;;5011860;28;20706;-79
2022/12/24 08:22:05;;;;;;;7.37;3.60;;;10.10;99.90;;;;;;5011557;28;20249;-79
2022/12/24 08:24:31;;;;;;;5.77;3.70;;;10.10;99.90;;;;;;5008812;28;20191;-78
2022/12/24 08:26:57;;;;;;;3.60;3.15;;;10.10;99.90;;;;;;5011220;28;20191;-79
2022/12/24 08:29:22;;;;;;;10.53;4.60;;;10.00;99.90;;;;;;5012358;28;20241;-79
2022/12/24 08:31:48;;;;;;;10.43;3.60;;;10.10;99.90;;;;;;5007068;28;20230;-79
2022/12/24 08:34:13;;;;;;;9.47;4.10;;;10.10;99.90;;;;;;5012342;28;20208;-78
2022/12/24 08:36:39;;;;;;;7.50;4.70;;;10.10;99.90;;;;;;5011055;28;20183;-78
2022/12/24 08:39:07;;;;;;;5.67;3.20;;;10.70;99.90;;;;;;5007380;28;20260;-78
2022/12/24 08:41:33;;;;;;;6.05;3.60;;;10.50;99.90;;;;;;5012129;28;20697;-78
2022/12/24 08:43:58;;;;;;;6.30;3.63;;;10.60;99.90;;;;;;5004867;28;20192;-78
2022/12/24 08:46:24;;;;;;;4.53;3.07;;;10.60;99.90;;;;;;5009433;28;20865;-79
2022/12/24 08:48:50;;;;;;;5.73;3.03;;;10.10;99.90;;;;;;5011434;28;20180;-78
2022/12/24 08:51:16;;;;;;;8.37;3.00;;;10.60;99.90;;;;;;5011578;28;20207;-79
2022/12/24 08:53:41;;;;;;;6.60;3.77;;;10.50;99.90;;;;;;5004419;28;20188;-79
2022/12/24 08:56:09;;;;;;;7.60;3.97;;;10.80;99.90;;;;;;5009113;28;20428;-79
2022/12/24 08:58:35;;;;;;;6.15;2.83;;;10.70;99.90;;;;;;5009473;28;20198;-78
2022/12/24 09:01:00;;;;;;;7.75;2.17;;;10.90;99.90;;;;;;5010587;28;20273;-78
2022/12/24 09:03:26;;;;;;;8.90;3.03;;;10.80;99.90;;;;;;5006916;28;20192;-79
2022/12/24 09:05:52;;;;;;;5.45;2.20;;;10.40;99.90;;;;;;5010395;28;20469;-78
2022/12/24 09:08:19;;;;;;;4.20;2.10;;;10.90;99.90;;;;;;5014261;28;20187;-78
2022/12/24 09:10:44;;;;;;;6.03;2.85;;;10.80;99.90;;;;;;5010569;28;21147;-78
2022/12/24 09:13:10;;;;;;;7.13;4.47;;;11.00;99.90;;;;;;5010210;28;20279;-78
2022/12/24 09:15:35;;;;;;;6.77;3.37;;;11.10;99.90;;;;;;5010818;28;20198;-77
2022/12/24 09:18:01;;;;;;;8.67;3.00;;;11.10;99.90;;;;;;5002961;28;20187;-78
2022/12/24 09:20:27;;;;;;;13.37;3.83;;;11.20;99.90;;;;;;5008376;28;20212;-78
2022/12/24 09:22:52;;;;;;;6.77;3.60;;;11.60;99.90;;;;;;5010250;28;20220;-78
2022/12/24 09:25:18;;;;;;;5.37;3.33;;;11.70;99.90;;;;;;5008778;28;20191;-78
2022/12/24 09:27:44;;;;;;;7.72;3.78;;;11.30;99.90;;;;;;5010573;28;20178;-79
2022/12/24 09:30:10;;;;;;;5.43;2.93;;;11.80;99.90;;;;;;5010202;28;20654;-78
2022/12/24 09:32:35;;;;;;;5.45;3.67;;;11.80;99.90;;;;;;5006927;28;20577;-79
2022/12/24 09:35:01;;;;;;;9.60;3.63;;;12.00;99.90;;;;;;5007414;28;20183;-79
2022/12/24 09:37:26;;;;;;;6.90;3.20;;;12.00;99.90;;;;;;5010399;28;20190;-78
2022/12/24 09:39:52;;;;;;;4.80;2.47;;;12.40;99.90;;;;;;5007848;28;20214;-79
2022/12/24 09:42:26;;;;;;;8.40;2.80;;;11.80;99.90;;;;;;5009928;28;20206;-79
2022/12/24 09:45:30;;;;;;;6.25;3.00;;;12.00;99.90;;;;;;5025240;28;20866;-78
2022/12/24 09:48:03;;;;;;;9.20;2.40;;;12.00;99.90;;;;;;5007841;28;20255;-79
2022/12/24 09:51:03;;;;;;;6.15;2.75;;;11.90;99.90;;;;;;5010710;28;20615;-78
2022/12/24 09:53:50;;;;;;;6.22;2.08;;;11.50;99.90;;;;;;4997493;28;20256;-78
2022/12/24 09:56:27;;;;;;;5.95;2.60;;;11.80;99.90;;;;;;5008002;28;20190;-78
2022/12/24 09:59:04;;;;;;;5.38;2.35;;;11.60;99.90;;;;;;5010774;28;20655;-77
2022/12/24 10:01:31;;;;;;;5.70;3.10;;;11.60;99.90;;;;;;5002676;28;20236;-78
2022/12/24 10:04:01;;;;;;;5.55;2.50;;;12.20;99.90;;;;;;5007666;28;20191;-78
2022/12/24 10:07:01;;;;;;;5.95;1.88;;;12.70;99.90;;;;;;5009773;28;20777;-78
2022/12/24 10:09:42;;;;;;;8.38;2.90;;;13.40;99.90;;;;;;5006730;28;20187;-79
2022/12/24 10:12:38;;;;;;;6.82;2.22;;;13.20;99.90;;;;;;5009988;28;20322;-79
2022/12/24 10:15:10;;;;;;;3.78;2.17;;;13.80;99.90;;;;;;5008045;28;20182;-78
2022/12/24 10:17:51;;;;;;;3.08;1.95;;;14.10;99.90;;;;;;5008639;28;20198;-78
2022/12/24 10:20:36;;;;;;;5.03;2.53;;;14.20;99.90;;;;;;5010013;28;20213;-79
2022/12/24 10:23:32;;;;;;;5.55;2.28;;;14.30;99.90;;;;;;5009725;28;20683;-77
2022/12/24 10:26:09;;;;;;;6.10;2.00;;;14.40;99.90;;;;;;5009602;28;20207;-78
2022/12/24 10:28:49;;;;;;;6.60;2.78;;;14.30;99.90;;;;;;5009794;28;20261;-79
2022/12/24 10:31:14;;;;;;;4.38;2.20;;;14.40;99.90;;;;;;5021213;28;20671;-78
2022/12/24 10:33:43;;;;;;;4.50;2.97;;;14.00;99.90;;;;;;5009608;28;20219;-77
2022/12/24 10:36:23;;;;;;;5.38;2.35;;;14.00;99.90;;;;;;5009602;28;20190;-77
2022/12/24 10:38:48;;;;;;;10.52;2.55;;;13.90;99.90;;;;;;5004084;28;20192;-78
2022/12/24 10:41:14;;;;;;;4.97;2.63;;;13.90;99.90;;;;;;5004428;28;20356;-78
2022/12/24 10:43:42;;;;;;;3.75;2.00;;;14.00;99.90;;;;;;5021631;28;20183;-79
2022/12/24 10:46:20;;;;;;;7.20;2.55;;;13.60;99.90;;;;;;5009734;28;20179;-78
2022/12/24 10:48:57;;;;;;;5.20;2.10;;;14.00;99.90;;;;;;5002181;28;20179;-78
2022/12/24 10:52:04;;;;;;;5.38;2.28;;;14.20;99.90;;;;;;5019340;28;20698;-78
2022/12/24 10:54:38;;;;;;;2.80;1.88;;;14.00;99.90;;;;;;5000499;28;20203;-79
2022/12/24 10:57:04;;;;;;;5.10;2.08;;;14.00;99.90;;;;;;5009207;28;20206;-78
2022/12/24 10:59:39;;;;;;;7.78;2.40;;;13.80;99.90;;;;;;5013188;28;20306;-78
2022/12/24 11:02:27;;;;;;;4.95;2.00;;;14.00;99.90;;;;;;5012959;28;20703;-78
2022/12/24 11:04:52;;;;;;;6.05;2.75;;;14.10;99.90;;;;;;5004246;28;20213;-78
2022/12/24 11:07:21;;;;;;;7.07;2.50;;;14.00;99.90;;;;;;5012751;28;20648;-78
2022/12/24 11:09:57;;;;;;;8.43;2.22;;;13.50;99.90;;;;;;5012528;28;20233;-78
2022/12/24 11:12:25;;;;;;;4.47;2.50;;;14.10;99.90;;;;;;5012827;28;20257;-79
2022/12/24 11:15:00;;;;;;;7.93;2.47;;;14.10;99.90;;;;;;5012559;28;20191;-79
2022/12/24 11:17:26;;;;;;;4.40;2.30;;;13.80;99.90;;;;;;5012668;28;20194;-79
2022/12/24 11:19:52;;;;;;;5.07;2.20;;;14.10;99.90;;;;;;5004742;28;20234;-79
2022/12/24 11:22:25;;;;;;;9.37;2.73;;;14.20;99.90;;;;;;5012451;28;20450;-78
2022/12/24 11:25:21;;;;;;;6.50;2.10;;;13.70;99.90;;;;;;5010659;28;20190;-79
2022/12/24 11:27:50;;;;;;;5.03;3.28;;;13.90;99.90;;;;;;4999063;28;20705;-78
2022/12/24 11:30:15;;;;;;;4.05;2.17;;;13.90;99.90;;;;;;5001443;28;20187;-79
2022/12/24 11:32:49;;;;;;;5.10;2.30;;;13.80;99.90;;;;;;5012248;28;20321;-79
2022/12/24 11:35:22;;;;;;;7.28;2.03;;;13.70;99.90;;;;;;5011932;28;20182;-79
2022/12/24 11:38:10;;;;;;;4.47;2.08;;;13.50;99.90;;;;;;5001594;28;20206;-79
2022/12/24 11:40:40;;;;;;;5.72;2.35;;;13.80;99.90;;;;;;5026957;28;20206;-79
2022/12/24 11:43:11;;;;;;;4.82;2.35;;;13.60;99.90;;;;;;5013679;28;20194;-79
2022/12/24 11:45:36;;;;;;;11.80;2.75;;;13.50;99.90;;;;;;5011883;28;20175;-79
2022/12/24 11:48:27;;;;;;;3.93;2.20;;;13.40;99.90;;;;;;4998361;28;20535;-79
2022/12/24 11:51:21;;;;;;;9.30;3.97;;;13.80;99.90;;;;;;5010752;28;20225;-79
2022/12/24 11:54:09;;;;;;;7.13;2.35;;;13.70;99.90;;;;;;5004242;28;20207;-79
2022/12/24 11:56:56;;;;;;;7.85;3.10;;;13.90;99.90;;;;;;5017814;28;20631;-78
2022/12/24 11:59:35;;;;;;;12.50;3.15;;;13.80;99.90;;;;;;5027566;28;20197;-78
2022/12/24 12:02:30;;;;;;;9.48;3.33;;;13.80;99.90;;;;;;5010594;28;20678;-79
2022/12/24 12:05:02;;;;;;;7.68;3.55;;;14.00;99.90;;;;;;5000723;28;20191;-79
2022/12/24 12:07:34;;;;;;;7.53;2.72;;;13.70;99.90;;;;;;5012176;28;20183;-79
2022/12/24 12:10:16;;;;;;;11.60;3.33;;;14.10;99.90;;;;;;5004545;28;20202;-80
2022/12/24 12:12:45;;;;;;;9.90;2.70;;;14.20;99.90;;;;;;5010408;28;20220;-80
2022/12/24 12:15:33;;;;;;;6.85;2.63;;;14.30;99.90;;;;;;5012027;28;20187;-79
2022/12/24 12:18:07;;;;;;;4.65;2.35;;;14.90;99.90;;;;;;5005899;28;20249;-78
2022/12/24 12:20:44;;;;;;;4.53;2.35;;;14.70;99.90;;;;;;5008929;28;20206;-79
2022/12/24 12:23:17;;;;;;;6.57;2.88;;;15.30;99.90;;;;;;5010024;28;20273;-79
2022/12/24 12:26:04;;;;;;;8.70;3.35;;;14.70;99.90;;;;;;5031247;28;20206;-79
2022/12/24 12:28:29;;;;;;;4.72;2.70;;;14.30;99.90;;;;;;5031968;28;20183;-78
2022/12/24 12:31:15;;;;;;;5.23;3.50;;;14.30;99.90;;;;;;5009588;28;20278;-78
2022/12/24 12:33:45;;;;;;;4.75;2.45;;;13.80;99.90;;;;;;5006174;28;20668;-79
2022/12/24 12:36:14;;;;;;;6.05;2.95;;;14.10;99.90;;;;;;5011225;28;20182;-78
2022/12/24 12:38:40;;;;;;;5.28;3.45;;;14.60;99.90;;;;;;5006763;28;20187;-78
2022/12/24 12:41:17;;;;;;;6.80;4.17;;;14.70;99.90;;;;;;5004083;28;20215;-78
2022/12/24 12:44:10;;;;;;;6.05;3.47;;;13.80;99.90;;;;;;5009725;28;20269;-78
2022/12/24 12:46:54;;;;;;;5.35;3.03;;;14.00;99.90;;;;;;5009134;28;20755;-78
2022/12/24 12:49:47;;;;;;;6.70;3.30;;;14.20;99.90;;;;;;5009804;28;20741;-79
2022/12/24 12:52:15;;;;;;;5.70;2.92;;;14.00;99.90;;;;;;5009895;28;20666;-78
2022/12/24 12:54:47;;;;;;;6.57;3.25;;;14.00;99.90;;;;;;5001281;28;20557;-79
2022/12/24 12:57:17;;;;;;;7.78;3.40;;;14.80;99.90;;;;;;5010932;28;20208;-78
2022/12/24 13:00:05;;;;;;;8.05;3.13;;;14.70;99.90;;;;;;5010769;28;20278;-78
2022/12/24 13:03:03;;;;;;;4.32;3.45;;;14.20;99.90;;;;;;5010041;28;20227;-78
2022/12/24 13:05:46;;;;;;;8.10;2.63;;;14.40;99.90;;;;;;5003825;28;20175;-78
2022/12/24 13:08:41;;;;;;;8.60;3.25;;;14.30;99.90;;;;;;5014961;28;20269;-79
2022/12/24 13:11:32;;;;;;;4.97;2.72;;;14.50;99.90;;;;;;5009436;28;20229;-79
2022/12/24 13:14:05;;;;;;;5.72;2.38;;;14.50;99.90;;;;;;5023724;28;20296;-78